createdAt,value
2022-08-21T00:00:29.217Z,99.90
2022-08-21T00:03:02.254Z,99.90
2022-08-21T00:05:29.486Z,99.90
2022-08-21T00:07:57.193Z,99.90
2022-08-21T00:10:25.628Z,99.90
2022-08-21T00:12:52.619Z,99.90
2022-08-21T00:15:24.497Z,99.90
2022-08-21T00:17:51.340Z,99.90
2022-08-21T00:20:19.106Z,99.90
2022-08-21T00:22:46.420Z,99.90
2022-08-21T00:25:15.024Z,99.90
2022-08-21T00:27:43.510Z,99.90
2022-08-21T00:30:11.697Z,99.90
2022-08-21T00:32:51.416Z,99.90
2022-08-21T00:35:22.922Z,99.90
2022-08-21T00:37:50.386Z,99.90
2022-08-21T00:40:21.617Z,99.90
2022-08-21T00:42:53.760Z,99.90
2022-08-21T00:45:23.281Z,99.90
2022-08-21T00:47:51.380Z,99.90
2022-08-21T00:50:21.942Z,99.90
2022-08-21T00:52:52.107Z,99.90
2022-08-21T00:55:20.729Z,99.90
2022-08-21T00:57:53.430Z,99.90
2022-08-21T01:00:25.776Z,99.90
2022-08-21T01:02:52.735Z,99.90
2022-08-21T01:05:19.821Z,99.90
2022-08-21T01:07:47.185Z,99.90
2022-08-21T01:10:24.234Z,99.90
2022-08-21T01:12:53.815Z,99.90
2022-08-21T01:15:22.648Z,99.90
2022-08-21T01:17:50.841Z,99.90
2022-08-21T01:20:17.743Z,99.90
2022-08-21T01:22:44.644Z,99.90
2022-08-21T01:25:16.073Z,99.90
2022-08-21T01:27:43.493Z,99.90
2022-08-21T01:30:17.480Z,99.90
2022-08-21T01:32:44.823Z,99.90
2022-08-21T01:35:13.752Z,99.90
2022-08-21T01:37:40.970Z,99.90
2022-08-21T01:40:09.409Z,99.90
2022-08-21T01:42:36.403Z,99.90
2022-08-21T01:45:04.789Z,99.90
2022-08-21T01:47:31.764Z,99.90
2022-08-21T01:49:58.598Z,99.90
2022-08-21T01:52:26.357Z,99.90
2022-08-21T01:54:55.493Z,99.90
2022-08-21T01:57:23.406Z,99.90
2022-08-21T01:59:53.429Z,99.90
2022-08-21T02:02:20.560Z,99.90
2022-08-21T02:04:47.670Z,99.90
2022-08-21T02:07:14.573Z,99.90
2022-08-21T02:09:43.365Z,99.90
2022-08-21T02:12:12.129Z,99.90
2022-08-21T02:14:39.213Z,99.90
2022-08-21T02:17:09.297Z,99.90
2022-08-21T02:19:40.520Z,99.90
2022-08-21T02:22:10.473Z,99.90
2022-08-21T02:24:53.945Z,99.90
2022-08-21T02:27:27.009Z,99.90
2022-08-21T02:29:56.638Z,99.90
2022-08-21T02:32:23.521Z,99.90
2022-08-21T02:34:50.809Z,99.90
2022-08-21T02:37:17.717Z,99.90
2022-08-21T02:39:44.623Z,99.90
2022-08-21T02:42:11.629Z,99.90
2022-08-21T02:44:38.656Z,99.90
2022-08-21T02:47:05.823Z,99.90
2022-08-21T02:49:32.768Z,99.90
2022-08-21T02:52:00.181Z,99.90
2022-08-21T02:54:27.294Z,99.90
2022-08-21T02:56:54.434Z,99.90
2022-08-21T02:59:21.371Z,99.90
2022-08-21T03:01:48.499Z,99.90
2022-08-21T03:04:16.038Z,99.90
2022-08-21T03:06:42.925Z,99.90
2022-08-21T03:09:10.900Z,99.90
2022-08-21T03:11:37.871Z,99.90
2022-08-21T03:14:06.084Z,99.90
2022-08-21T03:16:35.209Z,99.90
2022-08-21T03:19:03.678Z,99.90
2022-08-21T03:21:31.266Z,99.90
2022-08-21T03:23:58.041Z,99.90
2022-08-21T03:26:27.840Z,99.90
2022-08-21T03:28:55.507Z,99.90
2022-08-21T03:31:22.537Z,99.90
2022-08-21T03:33:49.526Z,99.90
2022-08-21T03:36:17.013Z,99.90
2022-08-21T03:38:44.024Z,99.90
2022-08-21T03:41:11.058Z,99.90
2022-08-21T03:43:39.405Z,99.90
2022-08-21T03:46:07.121Z,99.90
2022-08-21T03:48:36.212Z,99.90
2022-08-21T03:51:04.388Z,99.90
2022-08-21T03:53:31.333Z,99.90
2022-08-21T03:55:58.629Z,99.90
2022-08-21T03:58:28.825Z,99.90
2022-08-21T04:00:58.618Z,99.90
2022-08-21T04:03:26.574Z,99.90
2022-08-21T04:05:53.619Z,99.90
2022-08-21T04:08:20.921Z,99.90
2022-08-21T04:10:51.629Z,99.90
2022-08-21T04:13:18.303Z,99.90
2022-08-21T04:15:45.660Z,99.90
2022-08-21T04:18:13.051Z,99.90
2022-08-21T04:20:41.504Z,99.90
2022-08-21T04:23:12.433Z,99.90
2022-08-21T04:25:51.811Z,99.90
2022-08-21T04:28:18.816Z,99.90
2022-08-21T04:30:46.018Z,99.90
2022-08-21T04:33:13.172Z,99.90
2022-08-21T04:35:40.341Z,99.90
2022-08-21T04:38:07.170Z,99.90
2022-08-21T04:40:34.405Z,99.90
2022-08-21T04:43:10.088Z,99.90
2022-08-21T04:45:43.762Z,99.90
2022-08-21T04:48:14.223Z,99.90
2022-08-21T04:50:48.526Z,99.90
2022-08-21T04:53:25.322Z,99.90
2022-08-21T04:55:53.568Z,99.90
2022-08-21T04:58:23.766Z,99.90
2022-08-21T05:00:54.880Z,99.90
2022-08-21T05:03:22.593Z,99.90
2022-08-21T05:05:50.096Z,99.90
2022-08-21T05:08:20.221Z,99.90
2022-08-21T05:10:47.512Z,99.90
2022-08-21T05:13:14.613Z,99.90
2022-08-21T05:15:42.771Z,99.90
2022-08-21T05:18:09.518Z,99.90
2022-08-21T05:20:37.049Z,99.90
2022-08-21T05:23:09.866Z,99.90
2022-08-21T05:25:36.979Z,99.90
2022-08-21T05:28:04.295Z,99.90
2022-08-21T05:30:31.350Z,99.90
2022-08-21T05:33:00.106Z,99.90
2022-08-21T05:35:28.300Z,99.90
2022-08-21T05:37:56.031Z,99.90
2022-08-21T05:40:23.687Z,99.90
2022-08-21T05:42:54.765Z,99.90
2022-08-21T05:45:43.505Z,99.90
2022-08-21T05:48:21.612Z,99.90
2022-08-21T05:50:49.607Z,99.90
2022-08-21T05:53:18.614Z,99.90
2022-08-21T05:55:47.001Z,99.90
2022-08-21T05:58:19.975Z,99.90
2022-08-21T06:00:48.629Z,99.90
2022-08-21T06:03:25.544Z,99.90
2022-08-21T06:05:53.714Z,99.90
2022-08-21T06:08:24.087Z,99.90
2022-08-21T06:10:53.404Z,99.90
2022-08-21T06:13:21.680Z,99.90
2022-08-21T06:15:49.520Z,99.90
2022-08-21T06:18:17.045Z,99.90
2022-08-21T06:20:46.009Z,99.90
2022-08-21T06:23:13.233Z,99.90
2022-08-21T06:25:39.924Z,99.90
2022-08-21T06:28:09.329Z,99.90
2022-08-21T06:30:37.382Z,99.90
2022-08-21T06:33:04.792Z,99.90
2022-08-21T06:35:31.685Z,99.90
2022-08-21T06:37:59.117Z,99.90
2022-08-21T06:40:27.764Z,99.90
2022-08-21T06:43:06.048Z,99.90
2022-08-21T06:45:33.241Z,99.90
2022-08-21T06:48:00.625Z,99.90
2022-08-21T06:50:27.505Z,99.90
2022-08-21T06:53:09.402Z,99.50
2022-08-21T06:55:36.365Z,94.40
2022-08-21T06:58:05.413Z,92.50
2022-08-21T07:00:32.821Z,90.90
2022-08-21T07:02:59.903Z,86.20
2022-08-21T07:05:29.242Z,82.00
2022-08-21T07:07:56.575Z,79.00
2022-08-21T07:10:24.034Z,79.50
2022-08-21T07:12:59.096Z,86.10
2022-08-21T07:15:29.601Z,86.30
2022-08-21T07:17:58.091Z,87.50
2022-08-21T07:20:25.408Z,85.60
2022-08-21T07:22:52.469Z,82.90
2022-08-21T07:25:19.297Z,82.60
2022-08-21T07:27:46.279Z,84.70
2022-08-21T07:30:13.249Z,81.10
2022-08-21T07:32:40.381Z,80.00
2022-08-21T07:35:08.341Z,80.30
2022-08-21T07:37:35.564Z,79.80
2022-08-21T07:40:02.427Z,78.30
2022-08-21T07:42:29.308Z,77.40
2022-08-21T07:44:56.855Z,73.10
2022-08-21T07:47:41.571Z,72.10
2022-08-21T07:50:11.837Z,74.60
2022-08-21T07:52:39.772Z,74.60
2022-08-21T07:55:07.622Z,74.20
2022-08-21T07:57:34.734Z,77.90
2022-08-21T08:00:01.510Z,81.70
2022-08-21T08:02:30.515Z,87.40
2022-08-21T08:05:15.474Z,85.80
2022-08-21T08:07:42.218Z,81.40
2022-08-21T08:10:10.117Z,79.70
2022-08-21T08:12:39.419Z,80.40
2022-08-21T08:15:09.445Z,79.50
2022-08-21T08:17:36.385Z,77.60
2022-08-21T08:20:04.425Z,77.60
2022-08-21T08:22:31.331Z,80.30
2022-08-21T08:24:58.193Z,85.80
2022-08-21T08:27:24.984Z,84.20
2022-08-21T08:29:52.409Z,81.80
2022-08-21T08:32:19.869Z,83.50
2022-08-21T08:34:48.089Z,87.40
2022-08-21T08:37:14.860Z,89.80
2022-08-21T08:39:42.214Z,90.10
2022-08-21T08:42:33.365Z,90.10
2022-08-21T08:45:14.114Z,88.10
2022-08-21T08:47:45.524Z,81.00
2022-08-21T08:50:42.521Z,76.30
2022-08-21T08:53:23.087Z,76.30
2022-08-21T08:55:53.268Z,74.70
2022-08-21T08:58:29.430Z,76.50
2022-08-21T09:00:56.783Z,73.70
2022-08-21T09:03:25.282Z,69.90
2022-08-21T09:06:05.367Z,65.10
2022-08-21T09:08:43.530Z,64.10
2022-08-21T09:11:31.956Z,60.70
2022-08-21T09:14:23.053Z,65.70
2022-08-21T09:17:13.407Z,66.30
2022-08-21T09:19:55.122Z,68.80
2022-08-21T09:22:43.852Z,67.20
2022-08-21T09:25:36.773Z,64.70
2022-08-21T09:28:03.532Z,63.10
2022-08-21T09:30:33.496Z,60.40
2022-08-21T09:33:00.964Z,66.00
2022-08-21T09:35:28.147Z,69.40
2022-08-21T09:38:06.450Z,72.30
2022-08-21T09:40:47.945Z,69.80
2022-08-21T09:43:15.244Z,68.50
2022-08-21T09:45:45.858Z,64.30
2022-08-21T09:48:27.018Z,61.10
2022-08-21T09:51:18.912Z,64.70
2022-08-21T09:53:53.380Z,62.90
2022-08-21T09:56:39.342Z,59.50
2022-08-21T09:59:26.627Z,60.10
2022-08-21T10:01:54.926Z,59.00
2022-08-21T10:04:25.680Z,57.20
2022-08-21T10:06:52.529Z,54.80
2022-08-21T10:09:23.676Z,54.50
2022-08-21T10:12:05.010Z,56.10
2022-08-21T10:14:53.497Z,60.10
2022-08-21T10:17:39.741Z,62.90
2022-08-21T10:20:31.594Z,67.40
2022-08-21T10:23:27.449Z,67.90
2022-08-21T10:26:14.548Z,65.00
2022-08-21T10:29:00.470Z,68.00
2022-08-21T10:31:47.163Z,67.90
2022-08-21T10:34:51.647Z,65.30
2022-08-21T10:37:23.417Z,61.20
2022-08-21T10:40:14.674Z,61.40
2022-08-21T10:43:02.274Z,59.10
2022-08-21T10:45:41.448Z,58.80
2022-08-21T10:48:13.437Z,56.90
2022-08-21T10:50:49.501Z,55.80
2022-08-21T10:53:38.479Z,57.40
2022-08-21T10:56:29.466Z,58.40
2022-08-21T10:59:38.403Z,58.20
2022-08-21T11:02:14.359Z,58.00
2022-08-21T11:04:58.784Z,61.70
2022-08-21T11:07:34.332Z,64.00
2022-08-21T11:10:12.933Z,64.80
2022-08-21T11:12:52.978Z,68.20
2022-08-21T11:15:37.591Z,70.00
2022-08-21T11:18:19.104Z,69.50
2022-08-21T11:20:52.618Z,68.50
2022-08-21T11:23:46.406Z,67.90
2022-08-21T11:26:40.216Z,65.80
2022-08-21T11:29:29.466Z,65.00
2022-08-21T11:32:02.433Z,61.70
2022-08-21T11:34:58.405Z,58.40
2022-08-21T11:37:59.519Z,59.90
2022-08-21T11:40:48.324Z,58.20
2022-08-21T11:43:37.485Z,61.10
2022-08-21T11:46:37.117Z,62.50
2022-08-21T11:49:06.429Z,60.40
2022-08-21T11:52:09.788Z,58.50
2022-08-21T11:55:28.945Z,57.50
2022-08-21T11:58:23.084Z,57.90
2022-08-21T12:00:56.008Z,59.80
2022-08-21T12:03:53.632Z,58.80
2022-08-21T12:06:31.069Z,55.00
2022-08-21T12:09:01.711Z,52.30
2022-08-21T12:11:30.629Z,53.60
2022-08-21T12:13:58.112Z,54.20
2022-08-21T12:16:34.400Z,53.20
2022-08-21T12:19:24.712Z,53.90
2022-08-21T12:21:59.352Z,57.40
2022-08-21T12:24:29.312Z,59.60
2022-08-21T12:26:57.969Z,60.50
2022-08-21T12:29:33.544Z,61.60
2022-08-21T12:32:15.315Z,64.70
2022-08-21T12:34:48.385Z,65.80
2022-08-21T12:37:25.743Z,64.90
2022-08-21T12:39:54.754Z,64.60
2022-08-21T12:42:24.049Z,65.90
2022-08-21T12:44:59.744Z,67.60
2022-08-21T12:47:50.470Z,70.20
2022-08-21T12:50:38.348Z,70.90
2022-08-21T12:53:24.125Z,70.50
2022-08-21T12:55:51.539Z,70.50
2022-08-21T12:58:25.837Z,70.90
2022-08-21T13:01:25.636Z,71.30
2022-08-21T13:04:11.990Z,69.90
2022-08-21T13:06:42.834Z,69.30
2022-08-21T13:09:13.555Z,68.30
2022-08-21T13:11:46.436Z,67.70
2022-08-21T13:14:24.561Z,67.20
2022-08-21T13:16:59.583Z,65.80
2022-08-21T13:19:27.578Z,67.30
2022-08-21T13:21:54.552Z,67.20
2022-08-21T13:24:44.002Z,68.00
2022-08-21T13:27:28.697Z,68.20
2022-08-21T13:30:23.271Z,68.10
2022-08-21T13:32:56.477Z,68.10
2022-08-21T13:35:32.640Z,66.80
2022-08-21T13:38:00.835Z,66.70
2022-08-21T13:40:32.446Z,66.50
2022-08-21T13:43:01.268Z,68.30
2022-08-21T13:45:36.756Z,70.30
2022-08-21T13:48:06.725Z,70.00
2022-08-21T13:50:35.910Z,68.70
2022-08-21T13:53:06.653Z,68.30
2022-08-21T13:55:42.817Z,68.30
2022-08-21T13:58:12.299Z,69.50
2022-08-21T14:00:51.460Z,69.10
2022-08-21T14:03:38.830Z,68.80
2022-08-21T14:06:26.159Z,68.20
2022-08-21T14:09:14.454Z,65.80
2022-08-21T14:11:41.925Z,64.60
2022-08-21T14:14:23.321Z,65.30
2022-08-21T14:17:23.989Z,63.20
2022-08-21T14:19:51.804Z,62.30
2022-08-21T14:22:35.364Z,62.00
2022-08-21T14:25:15.608Z,64.70
2022-08-21T14:27:57.308Z,64.90
2022-08-21T14:30:36.623Z,64.80
2022-08-21T14:33:08.468Z,64.50
2022-08-21T14:35:35.393Z,64.70
2022-08-21T14:38:02.484Z,63.70
2022-08-21T14:40:29.633Z,63.20
2022-08-21T14:42:58.377Z,62.30
2022-08-21T14:45:31.058Z,62.60
2022-08-21T14:47:59.753Z,63.60
2022-08-21T14:50:28.030Z,64.60
2022-08-21T14:52:56.448Z,65.20
2022-08-21T14:55:23.241Z,65.10
2022-08-21T14:57:52.972Z,65.30
2022-08-21T15:00:27.161Z,67.20
2022-08-21T15:03:03.198Z,66.50
2022-08-21T15:05:33.726Z,66.60
2022-08-21T15:08:02.183Z,68.10
2022-08-21T15:10:32.358Z,68.20
2022-08-21T15:12:59.653Z,67.50
2022-08-21T15:15:26.978Z,67.10
2022-08-21T15:17:53.903Z,68.40
2022-08-21T15:20:21.004Z,68.40
2022-08-21T15:22:58.219Z,67.40
2022-08-21T15:25:25.880Z,67.10
2022-08-21T15:27:52.595Z,66.90
2022-08-21T15:30:19.687Z,66.70
2022-08-21T15:32:46.868Z,67.20
2022-08-21T15:35:14.051Z,66.80
2022-08-21T15:37:41.602Z,67.30
2022-08-21T15:40:09.016Z,68.50
2022-08-21T15:42:36.318Z,70.10
2022-08-21T15:45:04.612Z,70.20
2022-08-21T15:47:35.002Z,70.20
2022-08-21T15:50:03.037Z,70.60
2022-08-21T15:52:32.683Z,69.40
2022-08-21T15:54:59.717Z,70.10
2022-08-21T15:57:27.077Z,70.70
2022-08-21T15:59:58.902Z,70.70
2022-08-21T16:02:31.215Z,70.00
2022-08-21T16:04:58.559Z,70.70
2022-08-21T16:07:26.226Z,69.60
2022-08-21T16:09:53.184Z,69.50
2022-08-21T16:12:31.777Z,69.40
2022-08-21T16:15:00.777Z,68.50
2022-08-21T16:17:33.444Z,68.00
2022-08-21T16:20:01.785Z,68.30
2022-08-21T16:22:39.872Z,68.00
2022-08-21T16:25:11.490Z,68.00
2022-08-21T16:27:38.338Z,68.30
2022-08-21T16:30:07.746Z,68.60
2022-08-21T16:32:35.416Z,68.50
2022-08-21T16:35:04.139Z,68.80
2022-08-21T16:37:32.552Z,69.80
2022-08-21T16:39:59.527Z,70.00
2022-08-21T16:42:26.802Z,71.00
2022-08-21T16:44:55.313Z,72.60
2022-08-21T16:47:26.429Z,72.50
2022-08-21T16:49:54.700Z,72.70
2022-08-21T16:52:21.596Z,73.50
2022-08-21T16:54:48.684Z,73.90
2022-08-21T16:57:15.666Z,73.90
2022-08-21T16:59:42.481Z,74.30
2022-08-21T17:02:31.753Z,75.00
2022-08-21T17:04:59.364Z,75.20
2022-08-21T17:07:26.453Z,76.10
2022-08-21T17:09:53.494Z,76.40
2022-08-21T17:12:20.916Z,75.90
2022-08-21T17:14:49.238Z,76.00
2022-08-21T17:17:16.319Z,75.70
2022-08-21T17:19:43.927Z,76.60
2022-08-21T17:22:11.472Z,77.20
2022-08-21T17:24:38.561Z,77.70
2022-08-21T17:27:07.749Z,77.80
2022-08-21T17:29:38.433Z,77.00
2022-08-21T17:32:10.327Z,76.80
2022-08-21T17:34:38.250Z,76.20
2022-08-21T17:37:06.565Z,77.00
2022-08-21T17:39:33.674Z,77.10
2022-08-21T17:42:04.713Z,78.50
2022-08-21T17:44:31.893Z,77.80
2022-08-21T17:46:58.922Z,77.80
2022-08-21T17:49:25.920Z,78.00
2022-08-21T17:51:53.038Z,79.90
2022-08-21T17:54:20.006Z,81.10
2022-08-21T17:56:48.069Z,81.90
2022-08-21T17:59:15.413Z,82.40
2022-08-21T18:01:44.972Z,81.10
2022-08-21T18:04:12.596Z,81.00
2022-08-21T18:06:40.072Z,80.30
2022-08-21T18:09:07.347Z,80.30
2022-08-21T18:11:35.047Z,80.50
2022-08-21T18:14:07.580Z,81.80
2022-08-21T18:16:37.434Z,82.80
2022-08-21T18:19:09.456Z,84.50
2022-08-21T18:21:36.516Z,85.40
2022-08-21T18:24:03.851Z,85.70
2022-08-21T18:26:38.142Z,85.70
2022-08-21T18:29:09.131Z,86.60
2022-08-21T18:31:38.019Z,87.60
2022-08-21T18:34:14.301Z,87.20
2022-08-21T18:36:42.835Z,88.00
2022-08-21T18:39:35.029Z,90.10
2022-08-21T18:41:57.930Z,90.80
2022-08-21T18:44:29.608Z,91.20
2022-08-21T18:47:01.396Z,91.70
2022-08-21T18:49:28.957Z,92.80
2022-08-21T18:51:57.403Z,92.80
2022-08-21T18:54:24.993Z,93.50
2022-08-21T18:56:54.852Z,94.10
2022-08-21T18:59:23.861Z,94.80
2022-08-21T19:01:51.532Z,95.20
2022-08-21T19:04:43.191Z,95.00
2022-08-21T19:07:05.701Z,95.30
2022-08-21T19:09:32.658Z,95.50
2022-08-21T19:12:00.767Z,95.70
2022-08-21T19:14:29.247Z,96.00
2022-08-21T19:16:56.581Z,96.20
2022-08-21T19:19:23.618Z,96.10
2022-08-21T19:21:50.484Z,96.90
2022-08-21T19:24:18.237Z,97.60
2022-08-21T19:26:50.231Z,98.40
2022-08-21T19:32:11.330Z,98.40
2022-08-21T19:34:39.584Z,98.40
2022-08-21T19:37:07.518Z,98.30
2022-08-21T19:39:42.376Z,98.20
2022-08-21T19:42:13.933Z,98.10
2022-08-21T19:44:41.679Z,98.40
2022-08-21T19:47:19.041Z,98.50
2022-08-21T19:50:17.313Z,99.10
2022-08-21T19:52:46.734Z,99.90
2022-08-21T19:55:19.292Z,99.90
2022-08-21T19:57:46.365Z,99.90
2022-08-21T20:00:13.836Z,99.90
2022-08-21T20:02:47.794Z,99.90
2022-08-21T20:05:15.994Z,99.90
2022-08-21T20:07:46.137Z,99.90
2022-08-21T20:10:13.097Z,99.90
2022-08-21T20:12:41.202Z,99.90
2022-08-21T20:15:09.115Z,99.90
2022-08-21T20:17:36.382Z,99.90
2022-08-21T20:20:04.873Z,99.90
2022-08-21T20:22:31.609Z,99.90
2022-08-21T20:24:59.033Z,99.90
2022-08-21T20:27:27.830Z,99.90
2022-08-21T20:29:54.828Z,99.90
2022-08-21T20:32:22.299Z,99.90
2022-08-21T20:35:12.353Z,99.90
2022-08-21T20:37:40.385Z,99.90
2022-08-21T20:40:12.114Z,99.90
2022-08-21T20:42:41.030Z,99.90
2022-08-21T20:45:12.352Z,99.90
2022-08-21T20:47:40.093Z,99.90
2022-08-21T20:50:13.934Z,99.90
2022-08-21T20:52:42.160Z,99.90
2022-08-21T20:55:14.228Z,99.90
2022-08-21T20:58:07.569Z,99.90
2022-08-21T21:00:38.849Z,99.90
2022-08-21T21:03:14.526Z,99.90
2022-08-21T21:05:54.748Z,99.90
2022-08-21T21:08:36.899Z,99.90
2022-08-21T21:11:19.528Z,99.90
2022-08-21T21:13:49.397Z,99.90
2022-08-21T21:16:22.187Z,99.90
2022-08-21T21:18:57.095Z,99.90
2022-08-21T21:21:34.134Z,99.90
2022-08-21T21:24:20.524Z,99.90
2022-08-21T21:26:54.076Z,99.90
2022-08-21T21:29:35.831Z,99.90
2022-08-21T21:32:04.239Z,99.90
2022-08-21T21:34:37.426Z,99.90
2022-08-21T21:37:07.900Z,99.90
2022-08-21T21:39:46.980Z,99.90
2022-08-21T21:42:32.756Z,99.90
2022-08-21T21:45:05.368Z,99.90
2022-08-21T21:47:54.844Z,99.90
2022-08-21T21:50:52.432Z,99.90
2022-08-21T21:53:36.468Z,99.90
2022-08-21T21:56:27.502Z,99.90
2022-08-21T21:59:29.993Z,99.90
2022-08-21T22:02:06.818Z,99.90
2022-08-21T22:05:08.876Z,99.90
2022-08-21T22:07:57.931Z,99.90
2022-08-21T22:10:42.993Z,99.90
2022-08-21T22:13:26.561Z,99.90
2022-08-21T22:15:55.038Z,99.90
2022-08-21T22:18:26.676Z,99.90
2022-08-21T22:21:08.579Z,99.90
2022-08-21T22:23:42.777Z,99.90
2022-08-21T22:26:16.573Z,99.90
2022-08-21T22:28:48.376Z,99.90
2022-08-21T22:31:18.311Z,99.90
2022-08-21T22:34:18.450Z,99.90
2022-08-21T22:36:56.315Z,99.90
2022-08-21T22:39:33.182Z,99.90
2022-08-21T22:42:13.601Z,99.90
2022-08-21T22:44:52.929Z,99.90
2022-08-21T22:47:36.554Z,99.90
2022-08-21T22:50:15.772Z,99.90
2022-08-21T22:52:53.987Z,99.90
2022-08-21T22:55:37.542Z,99.90
2022-08-21T22:58:38.428Z,99.90
2022-08-21T23:01:27.600Z,99.90
2022-08-21T23:03:58.992Z,99.90
2022-08-21T23:06:46.659Z,99.90
2022-08-21T23:09:21.119Z,99.90
2022-08-21T23:11:50.698Z,99.90
2022-08-21T23:14:18.323Z,99.90
2022-08-21T23:17:14.458Z,99.90
2022-08-21T23:19:57.169Z,99.90
2022-08-21T23:22:47.287Z,99.90
2022-08-21T23:25:38.253Z,99.90
2022-08-21T23:28:45.994Z,99.90
2022-08-21T23:31:18.483Z,99.90
2022-08-21T23:34:06.146Z,99.90
2022-08-21T23:37:23.276Z,99.90
2022-08-21T23:40:15.258Z,99.90
2022-08-21T23:43:09.796Z,99.90
2022-08-21T23:45:40.532Z,99.90
2022-08-21T23:48:51.907Z,99.90
2022-08-21T23:51:33.921Z,99.90
2022-08-21T23:54:10.249Z,99.90
2022-08-21T23:57:08.263Z,99.90
